Time;durP1;ratioP1;P1;durP2;ratioP2;P2;SDS_P1;SDS_P2;PMS_P1;PMS_P2;Temp;Humidity;BMP_temperature;BMP_pressure;BME280_temperature;BME280_humidity;BME280_pressure;Samples;Min_cycle;Max_cycle;Signal;HPM_P1;HPM_P2
2023/12/25 00:01:32;;;;;;;2.92;1.38;;;9.10;99.90;;;;;;5009902;28;20477;-47
2023/12/25 00:03:59;;;;;;;5.45;1.60;;;9.10;99.90;;;;;;5007939;28;20096;-52
2023/12/25 00:06:26;;;;;;;4.82;1.55;;;9.10;99.90;;;;;;5009727;28;20111;-54
2023/12/25 00:08:53;;;;;;;4.45;1.17;;;9.10;99.90;;;;;;5008516;28;20481;-50
2023/12/25 00:11:20;;;;;;;2.53;1.20;;;9.20;99.90;;;;;;5008664;28;20042;-55
2023/12/25 00:13:48;;;;;;;3.33;1.23;;;9.30;99.90;;;;;;5009101;28;20268;-55
2023/12/25 00:16:15;;;;;;;4.88;1.33;;;9.30;99.90;;;;;;5009172;28;20070;-52
2023/12/25 00:18:42;;;;;;;3.10;1.40;;;9.30;99.90;;;;;;5010831;28;20055;-51
2023/12/25 00:21:10;;;;;;;5.75;1.50;;;9.10;99.90;;;;;;5007116;28;20423;-50
2023/12/25 00:23:36;;;;;;;4.13;1.48;;;9.00;99.90;;;;;;5010565;28;20133;-55
2023/12/25 00:26:04;;;;;;;2.78;1.20;;;8.90;99.90;;;;;;5009985;28;20034;-55
2023/12/25 00:28:31;;;;;;;4.90;1.38;;;8.90;99.90;;;;;;5010531;28;20574;-53
2023/12/25 00:30:58;;;;;;;4.35;1.10;;;8.80;99.90;;;;;;5007756;28;20174;-53
2023/12/25 00:33:25;;;;;;;7.05;1.42;;;8.80;99.90;;;;;;5000764;28;20057;-53
2023/12/25 00:35:52;;;;;;;5.13;1.90;;;8.80;99.90;;;;;;5006117;28;20632;-54
2023/12/25 00:38:20;;;;;;;4.70;1.40;;;8.80;99.90;;;;;;5004573;28;20133;-51
2023/12/25 00:40:47;;;;;;;3.80;1.42;;;8.90;99.90;;;;;;5007637;28;20559;-53
2023/12/25 00:43:14;;;;;;;5.20;1.45;;;8.90;99.90;;;;;;5008979;28;20491;-52
2023/12/25 00:45:41;;;;;;;7.72;3.67;;;8.90;99.90;;;;;;5007293;28;20412;-54
2023/12/25 00:48:07;;;;;;;6.82;1.33;;;9.00;99.90;;;;;;5004938;28;20133;-48
2023/12/25 00:50:35;;;;;;;4.47;1.48;;;9.00;99.90;;;;;;5006104;28;20049;-54
2023/12/25 00:53:03;;;;;;;3.67;1.20;;;9.00;99.90;;;;;;5007668;28;20069;-51
2023/12/25 00:55:30;;;;;;;4.50;1.20;;;9.10;99.90;;;;;;5008988;28;20562;-56
2023/12/25 00:57:57;;;;;;;3.58;1.27;;;9.10;99.90;;;;;;5008805;28;20057;-53
2023/12/25 01:00:25;;;;;;;3.40;1.98;;;9.20;99.90;;;;;;5008478;28;20144;-53
2023/12/25 01:02:54;;;;;;;3.88;1.50;;;9.20;99.90;;;;;;5006423;28;20038;-58
2023/12/25 01:05:21;;;;;;;4.85;2.13;;;9.20;99.90;;;;;;5006373;28;20041;-51
2023/12/25 01:07:48;;;;;;;5.47;1.40;;;9.30;99.90;;;;;;5005376;28;20117;-58
2023/12/25 01:10:15;;;;;;;3.78;1.10;;;9.30;99.90;;;;;;5007396;28;20069;-49
2023/12/25 01:12:42;;;;;;;5.78;2.45;;;9.30;99.90;;;;;;5003841;28;20129;-52
2023/12/25 01:15:12;;;;;;;3.00;1.20;;;9.30;99.90;;;;;;5006338;28;20116;-49
2023/12/25 01:17:38;;;;;;;7.43;1.58;;;9.30;99.90;;;;;;5018452;28;20081;-55
2023/12/25 01:20:06;;;;;;;4.82;1.40;;;9.40;99.90;;;;;;5013991;28;20374;-53
2023/12/25 01:22:33;;;;;;;5.93;1.40;;;9.30;99.90;;;;;;5011208;28;20132;-49
2023/12/25 01:25:00;;;;;;;2.70;1.30;;;9.30;99.90;;;;;;5009938;28;20133;-52
2023/12/25 01:27:27;;;;;;;4.93;1.33;;;9.40;99.90;;;;;;5036623;28;20442;-52
2023/12/25 01:29:54;;;;;;;7.43;1.48;;;9.30;99.90;;;;;;5003163;28;20581;-50
2023/12/25 01:32:21;;;;;;;6.03;1.65;;;9.30;99.90;;;;;;5008021;28;20041;-49
2023/12/25 01:34:48;;;;;;;4.22;1.15;;;9.40;99.90;;;;;;5006761;28;20117;-52
2023/12/25 01:37:15;;;;;;;3.70;1.20;;;9.40;99.90;;;;;;5007787;28;20118;-53
2023/12/25 01:39:42;;;;;;;3.95;1.23;;;9.40;99.90;;;;;;5008480;28;20042;-53
2023/12/25 01:42:09;;;;;;;5.40;1.75;;;9.40;99.90;;;;;;5006714;28;20070;-50
2023/12/25 01:44:36;;;;;;;3.75;1.38;;;9.30;99.90;;;;;;5012795;28;20084;-51
2023/12/25 01:47:03;;;;;;;3.35;1.40;;;9.40;99.90;;;;;;5009431;28;20055;-53
2023/12/25 01:49:30;;;;;;;2.97;1.17;;;9.40;99.90;;;;;;5012952;28;20133;-54
2023/12/25 01:51:58;;;;;;;3.40;1.30;;;9.40;99.90;;;;;;5010896;28;20046;-54
2023/12/25 01:54:25;;;;;;;3.38;1.33;;;9.40;99.90;;;;;;5012016;28;20053;-48
2023/12/25 01:56:52;;;;;;;3.47;1.20;;;9.40;99.90;;;;;;5012908;28;20069;-50
2023/12/25 01:59:20;;;;;;;2.97;1.20;;;9.40;99.90;;;;;;5008901;28;20120;-47
2023/12/25 02:01:47;;;;;;;3.00;1.17;;;9.40;99.90;;;;;;5014664;28;20048;-48
2023/12/25 02:04:14;;;;;;;7.07;1.40;;;9.40;99.90;;;;;;5011396;28;20127;-48
2023/12/25 02:06:42;;;;;;;2.67;1.27;;;9.40;99.90;;;;;;5008588;28;20080;-55
2023/12/25 02:09:09;;;;;;;3.80;1.65;;;9.40;99.90;;;;;;5011424;28;20041;-49
2023/12/25 02:11:42;;;;;;;3.75;1.20;;;9.40;99.90;;;;;;5011287;28;20116;-54
2023/12/25 02:14:11;;;;;;;3.28;1.30;;;9.40;99.90;;;;;;5008696;28;20041;-55
2023/12/25 02:16:40;;;;;;;5.30;1.25;;;9.40;99.90;;;;;;5012561;28;20061;-55
2023/12/25 02:19:19;;;;;;;2.35;1.10;;;9.40;99.90;;;;;;5011777;28;20103;-49
2023/12/25 02:21:46;;;;;;;3.30;1.23;;;9.40;99.90;;;;;;5009956;28;20041;-52
2023/12/25 02:24:18;;;;;;;3.15;1.30;;;9.40;99.90;;;;;;5011140;28;20161;-54
2023/12/25 02:26:45;;;;;;;2.40;1.10;;;9.30;99.90;;;;;;5009468;28;20529;-54
2023/12/25 02:29:12;;;;;;;4.57;1.38;;;9.40;99.90;;;;;;5013095;28;20121;-51
2023/12/25 02:31:39;;;;;;;5.28;1.45;;;9.30;99.90;;;;;;5012588;28;20053;-47
2023/12/25 02:34:06;;;;;;;2.05;1.30;;;9.30;99.90;;;;;;5010898;28;20228;-54
2023/12/25 02:36:33;;;;;;;1.77;1.15;;;9.40;99.90;;;;;;5012651;28;20431;-51
2023/12/25 02:39:00;;;;;;;6.65;1.30;;;9.50;99.90;;;;;;5012612;28;20387;-56
2023/12/25 02:41:27;;;;;;;2.65;1.10;;;9.40;99.90;;;;;;5010687;28;20054;-56
2023/12/25 02:43:54;;;;;;;4.00;1.48;;;9.40;99.90;;;;;;5040660;28;20153;-57
2023/12/25 02:46:21;;;;;;;4.18;1.52;;;9.40;99.90;;;;;;5011336;28;20425;-48
2023/12/25 02:48:48;;;;;;;4.47;1.50;;;9.50;99.90;;;;;;5011467;28;20045;-53
2023/12/25 02:51:15;;;;;;;3.00;1.40;;;9.40;99.90;;;;;;5010947;28;20042;-53
2023/12/25 02:53:42;;;;;;;5.45;1.48;;;9.40;99.90;;;;;;5012402;28;20471;-50
2023/12/25 02:56:09;;;;;;;4.25;1.45;;;9.40;99.90;;;;;;5006676;28;20044;-57
2023/12/25 02:58:36;;;;;;;3.25;1.38;;;9.50;99.90;;;;;;5012152;28;20050;-47
2023/12/25 03:01:03;;;;;;;3.95;1.52;;;9.40;99.90;;;;;;5010978;28;20340;-51
2023/12/25 03:03:31;;;;;;;3.30;1.42;;;9.50;99.90;;;;;;5012484;28;20104;-51
2023/12/25 03:05:58;;;;;;;3.10;1.20;;;9.40;99.90;;;;;;5008657;28;20487;-50
2023/12/25 03:08:25;;;;;;;2.70;1.30;;;9.40;99.90;;;;;;5009496;28;20038;-46
2023/12/25 03:10:52;;;;;;;6.65;2.03;;;9.50;99.90;;;;;;5011932;28;20038;-52
2023/12/25 03:13:19;;;;;;;2.88;1.27;;;9.50;99.90;;;;;;5002520;28;20096;-51
2023/12/25 03:15:46;;;;;;;4.82;1.33;;;9.50;99.90;;;;;;5008050;28;20163;-47
2023/12/25 03:18:13;;;;;;;6.32;1.65;;;9.50;99.90;;;;;;5008627;28;20076;-50
2023/12/25 03:20:40;;;;;;;3.97;1.50;;;9.50;99.90;;;;;;5012265;28;20644;-48
2023/12/25 03:23:07;;;;;;;6.32;1.60;;;9.50;99.90;;;;;;5008471;28;20418;-52
2023/12/25 03:25:34;;;;;;;3.22;1.25;;;9.50;99.90;;;;;;5011688;28;20096;-50
2023/12/25 03:28:01;;;;;;;3.40;1.27;;;9.40;99.90;;;;;;5010916;28;20070;-55
2023/12/25 03:30:28;;;;;;;5.05;1.20;;;9.30;99.90;;;;;;5011726;28;20052;-52
2023/12/25 03:32:55;;;;;;;5.82;1.52;;;9.30;99.90;;;;;;5007882;28;20052;-54
2023/12/25 03:35:22;;;;;;;6.40;1.67;;;9.20;99.90;;;;;;5007955;28;20057;-54
2023/12/25 03:37:49;;;;;;;7.43;1.67;;;9.10;99.90;;;;;;5010350;28;20045;-51
2023/12/25 03:40:16;;;;;;;4.10;1.65;;;8.90;99.90;;;;;;5008032;28;20065;-48
2023/12/25 03:42:43;;;;;;;3.92;1.27;;;8.80;99.90;;;;;;5009826;28;20056;-43
2023/12/25 03:45:10;;;;;;;3.97;1.20;;;8.70;99.90;;;;;;5008070;28;20045;-44
2023/12/25 03:47:37;;;;;;;2.78;1.30;;;8.70;99.90;;;;;;5007993;28;20054;-51
2023/12/25 03:50:04;;;;;;;2.85;1.33;;;8.70;99.90;;;;;;5008790;28;20335;-47
2023/12/25 03:52:31;;;;;;;5.45;1.60;;;8.70;99.90;;;;;;5006156;28;20060;-52
2023/12/25 03:54:58;;;;;;;7.75;1.80;;;8.70;99.90;;;;;;5008698;28;20054;-57
2023/12/25 03:57:25;;;;;;;4.55;2.30;;;8.70;99.90;;;;;;5010754;28;20125;-56
2023/12/25 03:59:52;;;;;;;5.03;1.27;;;8.70;99.90;;;;;;5009533;28;20515;-54
2023/12/25 04:02:19;;;;;;;4.68;1.60;;;8.70;99.90;;;;;;5008017;28;20045;-53
2023/12/25 04:04:46;;;;;;;6.80;1.30;;;8.80;99.90;;;;;;5008406;28;20056;-56
2023/12/25 04:07:14;;;;;;;4.40;1.45;;;8.80;99.90;;;;;;5007232;28;20116;-48
2023/12/25 04:09:42;;;;;;;5.45;1.40;;;8.80;99.90;;;;;;5010057;28;20103;-50
2023/12/25 04:12:08;;;;;;;4.38;1.10;;;8.80;99.90;;;;;;5007318;28;20588;-52
2023/12/25 04:14:39;;;;;;;3.55;1.23;;;8.90;99.90;;;;;;5010548;28;20034;-51
2023/12/25 04:17:06;;;;;;;4.05;1.35;;;8.90;99.90;;;;;;5007746;28;20129;-48
2023/12/25 04:19:33;;;;;;;7.95;1.60;;;8.90;99.90;;;;;;5008777;28;20205;-50
2023/12/25 04:22:01;;;;;;;2.90;1.38;;;9.00;99.90;;;;;;5006287;28;20462;-51
2023/12/25 04:24:28;;;;;;;5.72;1.50;;;9.10;99.90;;;;;;5009388;28;20399;-52
2023/12/25 04:26:55;;;;;;;3.00;1.40;;;9.20;99.90;;;;;;5006604;28;20042;-50
2023/12/25 04:29:22;;;;;;;2.97;1.27;;;9.30;99.90;;;;;;5009788;28;20073;-50
2023/12/25 04:31:49;;;;;;;2.65;1.20;;;9.30;99.90;;;;;;5009106;28;20092;-49
2023/12/25 04:34:18;;;;;;;4.55;1.20;;;9.40;99.90;;;;;;5007486;28;20042;-50
2023/12/25 04:36:45;;;;;;;2.13;1.10;;;9.40;99.90;;;;;;5024435;28;20386;-48
2023/12/25 04:39:13;;;;;;;1.65;0.93;;;9.40;99.90;;;;;;5007262;28;20061;-49
2023/12/25 04:41:40;;;;;;;7.20;2.75;;;9.40;99.90;;;;;;5008013;28;20053;-52
2023/12/25 04:44:07;;;;;;;1.83;1.00;;;9.40;99.90;;;;;;5008636;28;20049;-50
2023/12/25 04:46:35;;;;;;;2.13;1.10;;;9.40;99.90;;;;;;5009491;28;20063;-49
2023/12/25 04:49:02;;;;;;;4.30;1.20;;;9.40;99.90;;;;;;5006618;28;20049;-49
2023/12/25 04:51:29;;;;;;;4.13;1.65;;;9.40;99.90;;;;;;5008679;28;20071;-52
2023/12/25 04:53:56;;;;;;;3.15;1.23;;;9.40;99.90;;;;;;5007906;28;20061;-52
2023/12/25 04:56:24;;;;;;;3.47;1.15;;;9.40;99.90;;;;;;5003425;28;20037;-54
2023/12/25 04:58:51;;;;;;;5.15;1.10;;;9.30;99.90;;;;;;5008966;28;20044;-50
2023/12/25 05:01:18;;;;;;;6.90;1.60;;;9.40;99.90;;;;;;5036906;28;20414;-54
2023/12/25 05:03:45;;;;;;;4.13;1.40;;;9.30;99.90;;;;;;5010814;28;20045;-48
2023/12/25 05:06:12;;;;;;;7.38;1.70;;;9.40;99.90;;;;;;5006676;28;20081;-49
2023/12/25 05:08:39;;;;;;;2.47;1.25;;;9.40;99.90;;;;;;5036065;28;20107;-47
2023/12/25 05:11:06;;;;;;;4.50;1.20;;;9.40;99.90;;;;;;5008713;28;20038;-52
2023/12/25 05:13:33;;;;;;;2.85;1.40;;;9.40;99.90;;;;;;5008834;28;20041;-49
2023/12/25 05:16:00;;;;;;;3.67;1.33;;;9.30;99.90;;;;;;5008485;28;20041;-52
2023/12/25 05:18:27;;;;;;;2.33;1.17;;;9.30;99.90;;;;;;5008967;28;20037;-48
2023/12/25 05:20:54;;;;;;;6.70;1.30;;;9.30;99.90;;;;;;5003203;28;20110;-53
2023/12/25 05:23:21;;;;;;;3.67;1.23;;;9.30;99.90;;;;;;5010261;28;20143;-52
2023/12/25 05:25:48;;;;;;;2.95;1.40;;;9.30;99.90;;;;;;5009199;28;20502;-49
2023/12/25 05:28:15;;;;;;;1.73;1.00;;;9.30;99.90;;;;;;5008186;28;20050;-51
2023/12/25 05:30:42;;;;;;;2.38;1.20;;;9.40;99.90;;;;;;5009585;28;20042;-53
2023/12/25 05:33:09;;;;;;;3.90;1.30;;;9.30;99.90;;;;;;5009941;28;20459;-50
2023/12/25 05:35:36;;;;;;;3.88;1.45;;;9.30;99.90;;;;;;5007740;28;20046;-51
2023/12/25 05:38:03;;;;;;;1.75;1.00;;;9.30;99.90;;;;;;5011386;28;20095;-53
2023/12/25 05:40:30;;;;;;;3.80;1.27;;;9.30;99.90;;;;;;5009074;28;20422;-49
2023/12/25 05:42:57;;;;;;;3.08;1.30;;;9.40;99.90;;;;;;5006359;28;20111;-50
2023/12/25 05:45:25;;;;;;;2.78;1.10;;;9.40;99.90;;;;;;5009727;28;20033;-49
2023/12/25 05:47:52;;;;;;;2.97;1.20;;;9.40;99.90;;;;;;5010233;28;20168;-48
2023/12/25 05:50:19;;;;;;;3.05;1.00;;;9.40;99.90;;;;;;5008824;28;20069;-49
2023/12/25 05:52:46;;;;;;;2.40;1.30;;;9.40;99.90;;;;;;5009429;28;20045;-51
2023/12/25 05:55:13;;;;;;;2.78;1.13;;;9.50;99.90;;;;;;5008563;28;20046;-49
2023/12/25 05:57:40;;;;;;;4.95;1.40;;;9.40;99.90;;;;;;5008965;28;20053;-51
2023/12/25 06:00:08;;;;;;;4.40;1.10;;;9.40;99.90;;;;;;5007618;28;20070;-52
2023/12/25 06:02:39;;;;;;;3.83;1.35;;;9.50;99.90;;;;;;5009306;28;20076;-51
2023/12/25 06:05:06;;;;;;;3.58;1.10;;;9.40;99.90;;;;;;5003414;28;20074;-49
2023/12/25 06:07:33;;;;;;;3.25;1.23;;;9.40;99.90;;;;;;5010995;28;20046;-51
2023/12/25 06:10:00;;;;;;;2.33;1.05;;;9.40;99.90;;;;;;5006444;28;20053;-52
2023/12/25 06:12:27;;;;;;;2.78;1.08;;;9.40;99.90;;;;;;5009900;28;20511;-53
2023/12/25 06:14:54;;;;;;;2.35;1.05;;;9.40;99.90;;;;;;5008922;28;20038;-51
2023/12/25 06:17:21;;;;;;;3.38;1.10;;;9.40;99.90;;;;;;5010649;28;20049;-51
2023/12/25 06:19:48;;;;;;;1.80;1.02;;;9.40;99.90;;;;;;5007671;28;20124;-49
2023/12/25 06:22:15;;;;;;;3.13;1.00;;;9.50;99.90;;;;;;5001549;28;20046;-54
2023/12/25 06:24:42;;;;;;;2.90;1.00;;;9.50;99.90;;;;;;5007852;28;20053;-51
2023/12/25 06:27:09;;;;;;;1.40;0.90;;;9.50;99.90;;;;;;5005125;28;20058;-53
2023/12/25 06:29:36;;;;;;;2.83;1.02;;;9.50;99.90;;;;;;5008595;28;20129;-53
2023/12/25 06:32:03;;;;;;;2.80;1.00;;;9.50;99.90;;;;;;5010487;28;20056;-56
2023/12/25 06:34:30;;;;;;;1.95;1.00;;;9.60;99.90;;;;;;5009206;28;20053;-54
2023/12/25 06:36:57;;;;;;;2.58;0.95;;;9.60;99.90;;;;;;5010264;28;20141;-51
2023/12/25 06:39:24;;;;;;;2.30;1.10;;;9.60;99.90;;;;;;5010059;28;20041;-53
2023/12/25 06:41:51;;;;;;;2.17;0.90;;;9.60;99.90;;;;;;5009548;28;20127;-49
2023/12/25 06:44:17;;;;;;;1.50;0.98;;;9.60;99.90;;;;;;5009603;28;20100;-52
2023/12/25 06:46:44;;;;;;;1.88;0.90;;;9.50;99.90;;;;;;5009116;28;20056;-51
2023/12/25 06:49:11;;;;;;;2.70;1.10;;;9.50;99.90;;;;;;5008906;28;20141;-49
2023/12/25 06:51:39;;;;;;;2.40;1.00;;;9.50;99.90;;;;;;5010872;28;20050;-48
2023/12/25 06:54:06;;;;;;;1.95;1.20;;;9.50;99.90;;;;;;5004076;28;20072;-50
2023/12/25 06:56:33;;;;;;;1.30;0.88;;;9.50;99.90;;;;;;5011941;28;20045;-54
2023/12/25 06:59:00;;;;;;;2.67;0.90;;;9.60;99.90;;;;;;5011024;28;20424;-55
2023/12/25 07:01:26;;;;;;;1.60;0.90;;;9.50;99.90;;;;;;5011973;28;20485;-49
2023/12/25 07:03:53;;;;;;;2.58;1.17;;;9.50;99.90;;;;;;5010767;28;20357;-47
2023/12/25 07:06:20;;;;;;;2.25;1.25;;;9.50;99.90;;;;;;5010172;28;20073;-50
2023/12/25 07:08:47;;;;;;;2.72;1.02;;;9.40;99.90;;;;;;5013306;28;20506;-48
2023/12/25 07:11:14;;;;;;;1.85;0.95;;;9.40;99.90;;;;;;5010143;28;20065;-56
2023/12/25 07:13:42;;;;;;;1.55;1.00;;;9.40;99.90;;;;;;5013865;28;20132;-52
2023/12/25 07:16:22;;;;;;;1.73;0.90;;;9.50;99.90;;;;;;5010720;28;20037;-52
2023/12/25 07:18:50;;;;;;;2.17;1.23;;;9.50;99.90;;;;;;5009239;28;20033;-55
2023/12/25 07:21:17;;;;;;;1.58;1.00;;;9.50;99.90;;;;;;5010277;28;20069;-54
2023/12/25 07:23:44;;;;;;;1.67;0.90;;;9.50;99.90;;;;;;5004584;28;20111;-54
2023/12/25 07:26:11;;;;;;;1.67;1.00;;;9.40;99.90;;;;;;5009487;28;20111;-51
2023/12/25 07:28:37;;;;;;;3.35;1.00;;;9.40;99.90;;;;;;5009183;28;20052;-53
2023/12/25 07:31:04;;;;;;;1.42;0.80;;;9.30;99.90;;;;;;5006358;28;20045;-51
2023/12/25 07:33:33;;;;;;;1.67;0.80;;;9.30;99.90;;;;;;5012626;28;20064;-47
2023/12/25 07:36:01;;;;;;;2.25;1.10;;;9.30;99.90;;;;;;5009951;28;20056;-50
2023/12/25 07:38:28;;;;;;;2.70;0.90;;;9.30;99.90;;;;;;5012222;28;20200;-51
2023/12/25 07:40:57;;;;;;;1.33;0.90;;;9.20;99.90;;;;;;5010428;28;20581;-50
2023/12/25 07:43:26;;;;;;;1.73;0.90;;;9.30;99.90;;;;;;5008875;28;20077;-54
2023/12/25 07:45:53;;;;;;;2.03;1.00;;;9.30;99.90;;;;;;5009658;28;20042;-50
2023/12/25 07:48:20;;;;;;;3.58;1.33;;;9.20;99.90;;;;;;5010447;28;20496;-49
2023/12/25 07:50:49;;;;;;;3.90;1.20;;;9.20;99.90;;;;;;5009401;28;20165;-51
2023/12/25 07:53:17;;;;;;;2.67;0.95;;;9.20;99.90;;;;;;5008905;28;20125;-51
2023/12/25 07:55:44;;;;;;;3.50;1.00;;;9.20;99.90;;;;;;5007551;28;20112;-51
2023/12/25 07:58:11;;;;;;;2.17;1.02;;;9.30;99.90;;;;;;5010428;28;20432;-50
2023/12/25 08:00:38;;;;;;;2.13;1.00;;;9.30;99.90;;;;;;5010768;28;20050;-57
2023/12/25 08:03:05;;;;;;;2.08;0.90;;;9.20;99.90;;;;;;5008048;28;20226;-48
2023/12/25 08:05:32;;;;;;;2.55;1.10;;;9.20;99.90;;;;;;5008584;28;20133;-54
2023/12/25 08:07:59;;;;;;;3.13;1.10;;;9.20;99.90;;;;;;5010635;28;20124;-53
2023/12/25 08:10:26;;;;;;;2.28;1.02;;;9.20;99.90;;;;;;5009777;28;20068;-46
2023/12/25 08:12:53;;;;;;;2.72;1.08;;;9.10;99.90;;;;;;5008809;28;20068;-49
2023/12/25 08:15:20;;;;;;;1.85;1.10;;;9.00;99.90;;;;;;5010498;28;20100;-52
2023/12/25 08:17:47;;;;;;;2.00;1.10;;;9.00;99.90;;;;;;5009828;28;20421;-47
2023/12/25 08:20:14;;;;;;;1.63;0.88;;;9.00;99.90;;;;;;5010947;28;20038;-51
2023/12/25 08:22:41;;;;;;;1.75;1.08;;;9.00;99.90;;;;;;5012610;28;20158;-54
2023/12/25 08:25:08;;;;;;;2.70;1.17;;;9.00;99.90;;;;;;5010198;28;20065;-53
2023/12/25 08:27:35;;;;;;;3.70;1.10;;;9.00;99.90;;;;;;5012800;28;20073;-51
2023/12/25 08:30:04;;;;;;;3.85;1.20;;;9.10;99.90;;;;;;5008349;28;20088;-50
2023/12/25 08:32:31;;;;;;;2.53;1.00;;;9.00;99.90;;;;;;5012710;28;20459;-49
2023/12/25 08:34:58;;;;;;;1.92;0.95;;;9.10;99.90;;;;;;5000300;28;20499;-53
2023/12/25 08:37:25;;;;;;;2.10;1.15;;;9.10;99.90;;;;;;5007844;28;20049;-54
2023/12/25 08:39:53;;;;;;;2.97;0.90;;;9.10;99.90;;;;;;5010916;28;20446;-54
2023/12/25 08:42:20;;;;;;;3.00;1.00;;;9.10;99.90;;;;;;5012753;28;20041;-57
2023/12/25 08:44:47;;;;;;;2.33;1.10;;;9.00;99.90;;;;;;5006108;28;20154;-53
2023/12/25 08:47:15;;;;;;;1.63;0.93;;;9.00;99.90;;;;;;5012698;28;20062;-53
2023/12/25 08:49:42;;;;;;;2.85;1.25;;;9.00;99.90;;;;;;5014528;28;20065;-55
2023/12/25 08:52:09;;;;;;;2.47;1.10;;;8.80;99.90;;;;;;5009089;28;20208;-49
2023/12/25 08:54:37;;;;;;;1.88;1.02;;;8.80;99.90;;;;;;5010594;28;20049;-49
2023/12/25 08:57:04;;;;;;;2.95;1.35;;;8.80;99.90;;;;;;5011973;28;20042;-53
2023/12/25 08:59:31;;;;;;;2.05;1.00;;;8.70;99.90;;;;;;5012041;28;20611;-58
2023/12/25 09:01:59;;;;;;;3.92;1.40;;;8.60;99.90;;;;;;5006891;28;20073;-54
2023/12/25 09:04:26;;;;;;;2.38;1.40;;;8.50;99.90;;;;;;5010076;28;20526;-51
2023/12/25 09:06:53;;;;;;;2.15;0.90;;;8.60;99.90;;;;;;5012965;28;20046;-50
2023/12/25 09:09:21;;;;;;;1.95;1.10;;;8.50;99.90;;;;;;5033953;28;20046;-50
2023/12/25 09:11:49;;;;;;;2.47;1.00;;;8.40;99.90;;;;;;5012076;28;20049;-52
2023/12/25 09:14:16;;;;;;;2.17;1.08;;;8.50;99.90;;;;;;5008854;28;20034;-49
2023/12/25 09:16:43;;;;;;;3.80;1.00;;;8.40;99.90;;;;;;5011891;28;20037;-49
2023/12/25 09:19:10;;;;;;;2.25;1.00;;;8.40;99.90;;;;;;5016244;28;20041;-50
2023/12/25 09:21:38;;;;;;;2.85;1.20;;;8.40;99.90;;;;;;5011057;28;20132;-51
2023/12/25 09:24:06;;;;;;;1.90;1.00;;;8.50;99.90;;;;;;5010617;28;20135;-52
2023/12/25 09:26:33;;;;;;;4.63;1.65;;;8.50;99.90;;;;;;5013386;28;20258;-53
2023/12/25 09:29:00;;;;;;;1.90;0.95;;;8.60;99.90;;;;;;5012112;28;20077;-47
2023/12/25 09:31:27;;;;;;;3.10;1.20;;;8.70;99.90;;;;;;5005230;28;20034;-49
2023/12/25 09:33:54;;;;;;;2.20;1.15;;;8.70;99.90;;;;;;5008098;28;20050;-54
2023/12/25 09:36:24;;;;;;;2.50;1.00;;;8.70;99.90;;;;;;5010093;28;20042;-46
2023/12/25 09:38:51;;;;;;;3.55;1.58;;;8.80;99.90;;;;;;5010109;28;20049;-54
2023/12/25 09:41:18;;;;;;;3.85;1.20;;;8.80;99.90;;;;;;5009795;28;20144;-55
2023/12/25 09:43:47;;;;;;;2.35;1.10;;;8.90;99.90;;;;;;5013236;28;20131;-53
2023/12/25 09:46:14;;;;;;;2.40;1.00;;;8.90;99.90;;;;;;5009533;28;20112;-53
2023/12/25 09:48:42;;;;;;;3.17;1.30;;;8.90;99.90;;;;;;5016021;28;20060;-54
2023/12/25 09:51:10;;;;;;;2.40;1.20;;;8.90;99.90;;;;;;5013869;28;20184;-54
2023/12/25 09:53:37;;;;;;;3.78;1.50;;;9.00;99.90;;;;;;5015881;28;20085;-50
2023/12/25 09:56:09;;;;;;;3.50;1.40;;;9.00;99.90;;;;;;5009285;28;20042;-56
2023/12/25 09:58:38;;;;;;;3.15;1.20;;;9.10;99.90;;;;;;5010581;28;20042;-52
2023/12/25 10:01:05;;;;;;;3.97;1.23;;;9.00;99.90;;;;;;5010354;28;20045;-52
2023/12/25 10:03:37;;;;;;;2.90;1.20;;;9.00;99.90;;;;;;5005915;28;20065;-52
2023/12/25 10:06:04;;;;;;;3.42;1.50;;;9.20;99.90;;;;;;5004614;28;20045;-54
2023/12/25 10:08:31;;;;;;;2.90;1.20;;;9.20;99.90;;;;;;5012085;28;20068;-54
2023/12/25 10:10:58;;;;;;;6.28;1.70;;;9.20;99.90;;;;;;5008505;28;20030;-56
2023/12/25 10:13:25;;;;;;;2.70;1.23;;;9.30;99.90;;;;;;5016611;28;20128;-53
2023/12/25 10:15:52;;;;;;;2.65;1.13;;;9.20;99.90;;;;;;5017637;28;20053;-53
2023/12/25 10:18:20;;;;;;;2.42;1.23;;;9.20;99.90;;;;;;5014640;28;20072;-52
2023/12/25 10:20:57;;;;;;;3.45;1.48;;;9.30;99.90;;;;;;5019005;28;20503;-50
2023/12/25 10:23:32;;;;;;;2.88;1.10;;;9.20;99.90;;;;;;5010726;28;20165;-53
2023/12/25 10:26:03;;;;;;;4.82;1.60;;;9.20;99.90;;;;;;5011684;28;20050;-53
2023/12/25 10:28:32;;;;;;;2.53;1.15;;;9.30;99.90;;;;;;5013506;28;20522;-49
2023/12/25 10:31:06;;;;;;;2.63;1.23;;;9.30;99.90;;;;;;5013475;28;20337;-50
2023/12/25 10:33:35;;;;;;;2.30;1.15;;;9.40;99.90;;;;;;5013783;28;20055;-57
2023/12/25 10:36:07;;;;;;;2.03;1.00;;;9.50;99.90;;;;;;5013703;28;20125;-50
2023/12/25 10:38:40;;;;;;;2.25;0.93;;;9.50;99.90;;;;;;5014484;28;20343;-50
2023/12/25 10:41:26;;;;;;;2.45;1.17;;;9.50;99.90;;;;;;5013969;28;20046;-53
2023/12/25 10:44:00;;;;;;;2.25;1.10;;;9.50;99.90;;;;;;5010982;28;20073;-51
2023/12/25 10:46:36;;;;;;;3.25;1.33;;;9.50;99.90;;;;;;5015210;28;20049;-54
2023/12/25 10:49:06;;;;;;;1.75;1.13;;;9.50;99.90;;;;;;5015192;28;20103;-53
2023/12/25 10:51:46;;;;;;;4.22;1.08;;;9.40;99.90;;;;;;5016560;28;20442;-53
2023/12/25 10:54:14;;;;;;;2.10;1.10;;;9.50;99.90;;;;;;5012933;28;20487;-55
2023/12/25 10:56:45;;;;;;;2.10;1.33;;;9.60;99.90;;;;;;5006069;28;20054;-50
2023/12/25 10:59:19;;;;;;;3.10;1.00;;;9.60;99.90;;;;;;5009808;28;20395;-53
2023/12/25 11:01:48;;;;;;;2.72;1.33;;;9.60;99.90;;;;;;5012485;28;20072;-49
2023/12/25 11:04:16;;;;;;;2.70;1.10;;;9.70;99.90;;;;;;5014514;28;20096;-55
2023/12/25 11:06:47;;;;;;;2.60;1.05;;;9.70;99.90;;;;;;5013692;28;20100;-48
2023/12/25 11:09:17;;;;;;;2.35;1.17;;;9.60;99.90;;;;;;5013974;28;20061;-53
2023/12/25 11:11:45;;;;;;;2.08;0.90;;;9.60;99.90;;;;;;5010895;28;20049;-55
2023/12/25 11:14:12;;;;;;;2.10;0.90;;;9.60;99.90;;;;;;5013272;28;20395;-53
2023/12/25 11:16:39;;;;;;;2.33;1.10;;;9.50;99.90;;;;;;5005754;28;20061;-53
2023/12/25 11:19:07;;;;;;;2.25;1.10;;;9.60;99.90;;;;;;5009195;28;20069;-50
2023/12/25 11:21:34;;;;;;;1.52;0.95;;;9.60;99.90;;;;;;5009084;28;20069;-50
2023/12/25 11:24:02;;;;;;;2.42;1.10;;;9.50;99.90;;;;;;5009996;28;20041;-46
2023/12/25 11:26:30;;;;;;;1.48;0.70;;;9.60;99.90;;;;;;5013006;28;20306;-52
2023/12/25 11:29:00;;;;;;;3.75;1.15;;;9.60;99.90;;;;;;5010451;28;20092;-53
2023/12/25 11:31:29;;;;;;;2.40;0.95;;;9.60;99.90;;;;;;5010924;28;20076;-53
2023/12/25 11:34:17;;;;;;;3.30;0.90;;;9.60;99.90;;;;;;5010043;28;20084;-51
2023/12/25 11:36:45;;;;;;;1.88;0.95;;;9.60;99.90;;;;;;5006205;28;20573;-49
2023/12/25 11:39:12;;;;;;;2.88;1.17;;;9.60;99.90;;;;;;5012330;28;20101;-58
2023/12/25 11:41:39;;;;;;;2.47;1.23;;;9.60;99.90;;;;;;5010478;28;20065;-51
2023/12/25 11:44:07;;;;;;;2.60;1.33;;;9.50;99.90;;;;;;5007204;28;20498;-53
2023/12/25 11:46:37;;;;;;;2.78;1.17;;;9.60;99.90;;;;;;5015125;28;20046;-56
2023/12/25 11:49:05;;;;;;;2.08;1.20;;;9.60;99.90;;;;;;5009368;28;20052;-55
2023/12/25 11:51:32;;;;;;;2.65;1.20;;;9.60;99.90;;;;;;5013111;28;20053;-57
2023/12/25 11:54:00;;;;;;;1.80;1.05;;;9.60;99.90;;;;;;5012823;28;20442;-53
2023/12/25 11:56:33;;;;;;;2.83;1.00;;;9.60;99.90;;;;;;5012059;28;20096;-54
2023/12/25 11:59:01;;;;;;;2.45;1.30;;;9.60;99.90;;;;;;4998409;28;20333;-53
2023/12/25 12:01:28;;;;;;;2.78;1.42;;;9.60;99.90;;;;;;5018560;28;20053;-54
2023/12/25 12:03:55;;;;;;;1.52;0.90;;;9.60;99.90;;;;;;5009527;28;20451;-49
2023/12/25 12:06:22;;;;;;;3.75;1.10;;;9.50;99.90;;;;;;5011806;28;20495;-54
2023/12/25 12:08:50;;;;;;;2.28;0.90;;;9.50;99.90;;;;;;5010481;28;20543;-56
2023/12/25 12:11:20;;;;;;;1.98;1.10;;;9.40;99.90;;;;;;5013163;28;20045;-51
2023/12/25 12:13:47;;;;;;;1.95;1.10;;;9.30;99.90;;;;;;5008400;28;20108;-51
2023/12/25 12:16:14;;;;;;;4.88;1.20;;;9.20;99.90;;;;;;5011658;28;20057;-53
2023/12/25 12:18:42;;;;;;;2.00;0.90;;;9.20;99.90;;;;;;5019501;28;20037;-54
2023/12/25 12:21:09;;;;;;;2.58;1.17;;;9.20;99.90;;;;;;5018408;28;20339;-50
2023/12/25 12:23:38;;;;;;;1.80;1.13;;;9.10;99.90;;;;;;5018484;28;20052;-53
2023/12/25 12:26:15;;;;;;;2.55;1.25;;;9.10;99.90;;;;;;5012456;28;20042;-56
2023/12/25 12:28:43;;;;;;;2.58;1.13;;;9.00;99.90;;;;;;5009918;28;20079;-51
2023/12/25 12:31:11;;;;;;;1.77;0.90;;;9.00;99.90;;;;;;5005972;28;20052;-52
2023/12/25 12:33:38;;;;;;;3.70;0.95;;;9.00;99.90;;;;;;5002214;28;20077;-53
2023/12/25 12:36:05;;;;;;;2.35;1.02;;;9.00;99.90;;;;;;5000197;28;20116;-54
2023/12/25 12:38:33;;;;;;;1.90;1.20;;;8.90;99.90;;;;;;5010392;28;20061;-51
2023/12/25 12:41:00;;;;;;;3.92;1.30;;;9.00;99.90;;;;;;5008182;28;20134;-53
2023/12/25 12:43:27;;;;;;;2.40;1.20;;;8.90;99.90;;;;;;5007557;28;20050;-51
2023/12/25 12:45:54;;;;;;;2.30;1.27;;;8.90;99.90;;;;;;5007442;28;20045;-49
2023/12/25 12:48:22;;;;;;;3.53;1.08;;;8.90;99.90;;;;;;5012774;28;20065;-57
2023/12/25 12:50:49;;;;;;;2.33;1.20;;;8.80;99.90;;;;;;5008800;28;20050;-52
2023/12/25 12:53:16;;;;;;;3.00;1.00;;;8.70;99.90;;;;;;5011119;28;20052;-56
2023/12/25 12:55:43;;;;;;;3.72;1.48;;;8.80;99.90;;;;;;5016771;28;20533;-51
2023/12/25 12:58:10;;;;;;;4.00;1.52;;;8.70;99.90;;;;;;5010046;28;20034;-52
2023/12/25 13:00:37;;;;;;;2.85;1.40;;;8.80;99.90;;;;;;5014572;28;20166;-48